Time;durP1;ratioP1;P1;durP2;ratioP2;P2;SDS_P1;SDS_P2;PMS_P1;PMS_P2;Temp;Humidity;BMP_temperature;BMP_pressure;BME280_temperature;BME280_humidity;BME280_pressure;Samples;Min_cycle;Max_cycle;Signal;HPM_P1;HPM_P2
2022/05/13 00:00:19;;;;;;;12.52;6.80;;;;;;;;;;5008403;28;20436;-84
2022/05/13 00:02:45;;;;;;;16.20;7.15;;;;;;;;;;5006907;28;20443;-83
2022/05/13 00:05:12;;;;;;;16.83;6.80;;;;;;;;;;5009627;28;20432;-84
2022/05/13 00:07:38;;;;;;;14.98;7.20;;;;;;;;;;5010854;28;20470;-85
2022/05/13 00:10:06;;;;;;;11.90;5.82;;;;;;;;;;5007040;28;20488;-84
2022/05/13 00:12:34;;;;;;;12.02;6.20;;;;;;;;;;5009007;28;20467;-84
2022/05/13 00:15:01;;;;;;;11.50;5.90;;;;;;;;;;5009411;28;20426;-84
2022/05/13 00:17:28;;;;;;;12.20;5.63;;;;;;;;;;5012426;28;20425;-84
2022/05/13 00:19:55;;;;;;;13.07;5.93;;;;;;;;;;5009381;28;20460;-84
2022/05/13 00:22:21;;;;;;;11.55;6.13;;;;;;;;;;5010965;28;20504;-85
2022/05/13 00:24:47;;;;;;;11.45;6.22;;;;;;;;;;5008581;28;20417;-84
2022/05/13 00:27:14;;;;;;;12.07;6.47;;;;;;;;;;5009535;28;21115;-84
2022/05/13 00:29:41;;;;;;;12.60;6.40;;;;;;;;;;5008383;28;20436;-85
2022/05/13 00:32:08;;;;;;;13.18;7.03;;;;;;;;;;5007824;28;20499;-84
2022/05/13 00:34:34;;;;;;;13.40;6.30;;;;;;;;;;5008995;28;20445;-84
2022/05/13 00:37:01;;;;;;;10.60;6.70;;;;;;;;;;5007081;28;20458;-84
2022/05/13 00:39:27;;;;;;;10.75;5.80;;;;;;;;;;5007852;28;20413;-84
2022/05/13 00:41:54;;;;;;;10.07;6.47;;;;;;;;;;5009843;28;20469;-84
2022/05/13 00:44:21;;;;;;;9.60;5.82;;;;;;;;;;5008635;28;20463;-84
2022/05/13 00:46:49;;;;;;;9.73;6.40;;;;;;;;;;5009473;28;20430;-84
2022/05/13 00:49:16;;;;;;;12.30;6.60;;;;;;;;;;5008607;28;20473;-84
2022/05/13 00:51:45;;;;;;;10.07;5.70;;;;;;;;;;5016096;28;20438;-84
2022/05/13 00:54:13;;;;;;;8.80;6.03;;;;;;;;;;5007388;28;20481;-84
2022/05/13 00:56:42;;;;;;;11.20;5.95;;;;;;;;;;5006777;28;20438;-84
2022/05/13 00:59:09;;;;;;;9.65;5.13;;;;;;;;;;5006264;28;20439;-84
2022/05/13 01:01:35;;;;;;;10.68;5.80;;;;;;;;;;5008258;28;20456;-84
2022/05/13 01:04:05;;;;;;;10.43;5.65;;;;;;;;;;5007207;28;20794;-84
2022/05/13 01:06:32;;;;;;;11.48;5.80;;;;;;;;;;5006473;28;20441;-84
2022/05/13 01:08:59;;;;;;;7.85;5.20;;;;;;;;;;5003164;28;20469;-84
2022/05/13 01:11:27;;;;;;;8.93;5.30;;;;;;;;;;5005749;28;20522;-84
2022/05/13 01:13:56;;;;;;;7.70;5.40;;;;;;;;;;5025302;28;20423;-84
2022/05/13 01:16:23;;;;;;;7.45;5.50;;;;;;;;;;5026196;28;20477;-84
2022/05/13 01:18:48;;;;;;;7.63;5.60;;;;;;;;;;5024707;28;20439;-84
2022/05/13 01:21:21;;;;;;;7.43;4.90;;;;;;;;;;5026727;28;20918;-84
2022/05/13 01:23:50;;;;;;;8.50;5.30;;;;;;;;;;5025381;28;20438;-84
2022/05/13 01:26:19;;;;;;;8.77;4.82;;;;;;;;;;5027579;28;20431;-85
2022/05/13 01:28:47;;;;;;;9.77;4.80;;;;;;;;;;5026576;28;20462;-84
2022/05/13 01:31:15;;;;;;;7.90;5.13;;;;;;;;;;5025378;28;20447;-84
2022/05/13 01:33:42;;;;;;;6.93;5.30;;;;;;;;;;5024996;28;20480;-84
2022/05/13 01:36:09;;;;;;;10.00;4.70;;;;;;;;;;5025455;28;20508;-84
2022/05/13 01:38:37;;;;;;;9.15;5.20;;;;;;;;;;5024874;28;20439;-84
2022/05/13 01:41:05;;;;;;;7.10;4.30;;;;;;;;;;5027939;28;20803;-84
2022/05/13 01:43:32;;;;;;;6.57;5.17;;;;;;;;;;5026605;28;20431;-84
2022/05/13 01:45:59;;;;;;;7.80;4.70;;;;;;;;;;5025702;28;20436;-84
2022/05/13 01:48:26;;;;;;;6.50;5.10;;;;;;;;;;5027983;28;20449;-84
2022/05/13 01:50:52;;;;;;;9.48;5.55;;;;;;;;;;5027029;28;20433;-84
2022/05/13 01:53:18;;;;;;;8.60;4.97;;;;;;;;;;5024355;28;20475;-84
2022/05/13 01:55:45;;;;;;;7.43;4.60;;;;;;;;;;5027162;28;20427;-82
2022/05/13 01:58:13;;;;;;;7.22;4.57;;;;;;;;;;5024878;28;20419;-83
2022/05/13 02:00:40;;;;;;;6.20;4.28;;;;;;;;;;5023618;28;20435;-84
2022/05/13 02:05:51;;;;;;;5.50;4.30;;;;;;;;;;5026948;28;20438;-84
2022/05/13 02:08:17;;;;;;;7.35;4.90;;;;;;;;;;5024813;28;20433;-84
2022/05/13 02:10:43;;;;;;;7.40;4.60;;;;;;;;;;5025556;28;20431;-84
2022/05/13 02:13:10;;;;;;;8.30;4.80;;;;;;;;;;5026455;28;20928;-83
2022/05/13 02:15:38;;;;;;;6.80;4.20;;;;;;;;;;5026976;28;20494;-84
2022/05/13 02:18:04;;;;;;;8.93;4.53;;;;;;;;;;5025012;28;20952;-85
2022/05/13 02:20:30;;;;;;;5.00;4.00;;;;;;;;;;5025824;28;20429;-84
2022/05/13 02:22:56;;;;;;;6.65;4.57;;;;;;;;;;5025598;28;20479;-84
2022/05/13 02:25:23;;;;;;;6.68;4.60;;;;;;;;;;5030190;28;20488;-84
2022/05/13 02:27:49;;;;;;;6.72;4.00;;;;;;;;;;5030860;28;20430;-83
2022/05/13 02:30:15;;;;;;;6.65;4.63;;;;;;;;;;5028668;28;20930;-84
2022/05/13 02:32:43;;;;;;;9.30;4.75;;;;;;;;;;5030111;28;20425;-83
2022/05/13 02:35:11;;;;;;;6.72;4.72;;;;;;;;;;5026442;28;20532;-83
2022/05/13 02:37:37;;;;;;;6.57;4.55;;;;;;;;;;5030788;28;20435;-84
2022/05/13 02:40:04;;;;;;;5.57;4.43;;;;;;;;;;5029744;28;20461;-84
2022/05/13 02:42:30;;;;;;;5.13;4.38;;;;;;;;;;5029187;28;20415;-83
2022/05/13 02:44:57;;;;;;;5.95;4.20;;;;;;;;;;5029986;28;20436;-84
2022/05/13 02:47:23;;;;;;;6.25;4.60;;;;;;;;;;5028520;28;20427;-84
2022/05/13 02:50:17;;;;;;;8.02;4.88;;;;;;;;;;5029087;28;20431;-84
2022/05/13 02:52:37;;;;;;;7.07;4.45;;;;;;;;;;5027898;28;20450;-84
2022/05/13 02:55:04;;;;;;;6.82;4.40;;;;;;;;;;5029314;28;21524;-84
2022/05/13 02:57:30;;;;;;;9.13;4.93;;;;;;;;;;5030804;28;20468;-84
2022/05/13 02:59:59;;;;;;;6.72;4.75;;;;;;;;;;5028504;28;20463;-84
2022/05/13 03:02:25;;;;;;;7.22;4.65;;;;;;;;;;5029953;28;20486;-84
2022/05/13 03:04:53;;;;;;;8.53;5.40;;;;;;;;;;5029747;28;20944;-84
2022/05/13 03:07:19;;;;;;;8.30;4.97;;;;;;;;;;5046755;22;20424;-82
2022/05/13 03:09:45;;;;;;;7.38;4.82;;;;;;;;;;5023924;28;20484;-81
2022/05/13 03:12:12;;;;;;;7.90;4.90;;;;;;;;;;5018558;28;20421;-81
2022/05/13 03:14:39;;;;;;;6.40;4.50;;;;;;;;;;5019120;28;20439;-81
2022/05/13 03:17:05;;;;;;;6.40;4.70;;;;;;;;;;5023038;28;20467;-81
2022/05/13 03:19:31;;;;;;;7.22;5.10;;;;;;;;;;5021974;28;20463;-82
2022/05/13 03:21:59;;;;;;;8.30;4.63;;;;;;;;;;5019752;28;20417;-81
2022/05/13 03:24:25;;;;;;;5.32;4.30;;;;;;;;;;5021315;28;20899;-83
2022/05/13 03:26:52;;;;;;;8.50;4.80;;;;;;;;;;5021119;28;20436;-82
2022/05/13 03:29:19;;;;;;;6.63;4.60;;;;;;;;;;5021110;28;20539;-80
2022/05/13 03:31:46;;;;;;;6.85;4.88;;;;;;;;;;5022428;28;20436;-81
2022/05/13 03:34:12;;;;;;;10.50;4.90;;;;;;;;;;5020760;28;20846;-81
2022/05/13 03:36:38;;;;;;;7.57;5.30;;;;;;;;;;5020375;28;20494;-83
2022/05/13 03:39:06;;;;;;;8.88;4.80;;;;;;;;;;5022234;28;20432;-81
2022/05/13 03:41:32;;;;;;;11.82;4.90;;;;;;;;;;5019154;28;20440;-81
2022/05/13 03:43:59;;;;;;;8.13;4.60;;;;;;;;;;5022260;28;20858;-81
2022/05/13 03:46:25;;;;;;;7.78;4.80;;;;;;;;;;5021962;28;20432;-83
2022/05/13 03:48:51;;;;;;;6.57;4.80;;;;;;;;;;5021673;28;20420;-81
2022/05/13 03:51:18;;;;;;;10.35;5.80;;;;;;;;;;5022108;28;20921;-82
2022/05/13 03:53:44;;;;;;;6.72;4.50;;;;;;;;;;5021035;28;20471;-81
2022/05/13 03:56:12;;;;;;;10.20;5.20;;;;;;;;;;5022368;28;20444;-81
2022/05/13 03:58:39;;;;;;;9.03;4.90;;;;;;;;;;5019965;28;20464;-81
2022/05/13 04:01:06;;;;;;;10.83;4.60;;;;;;;;;;5020761;28;20424;-81
2022/05/13 04:03:32;;;;;;;8.10;4.50;;;;;;;;;;5020870;28;20846;-84
2022/05/13 04:08:58;;;;;;;7.57;4.30;;;;;;;;;;5019626;28;20432;-82
2022/05/13 04:11:26;;;;;;;7.30;5.15;;;;;;;;;;5021741;28;20440;-82
2022/05/13 04:16:36;;;;;;;7.20;4.40;;;;;;;;;;5020116;28;20427;-81
2022/05/13 04:19:03;;;;;;;8.38;4.80;;;;;;;;;;5020639;28;20432;-81
2022/05/13 04:21:32;;;;;;;6.90;4.03;;;;;;;;;;5017937;28;20432;-81
2022/05/13 04:24:00;;;;;;;8.95;5.40;;;;;;;;;;5019722;28;20436;-82
2022/05/13 04:26:28;;;;;;;7.00;4.90;;;;;;;;;;5022224;28;20436;-80
2022/05/13 04:28:54;;;;;;;6.50;4.10;;;;;;;;;;5019522;28;20425;-82
2022/05/13 04:31:22;;;;;;;9.45;4.40;;;;;;;;;;5019683;28;20424;-82
2022/05/13 04:33:49;;;;;;;8.07;4.38;;;;;;;;;;5014116;28;20534;-82
2022/05/13 04:36:16;;;;;;;6.70;4.65;;;;;;;;;;5020406;28;20444;-83
2022/05/13 04:38:44;;;;;;;9.95;4.43;;;;;;;;;;5022027;28;20421;-83
2022/05/13 04:43:57;;;;;;;9.05;5.20;;;;;;;;;;5018822;28;20500;-81
2022/05/13 04:46:23;;;;;;;11.07;4.88;;;;;;;;;;5018070;28;20437;-82
2022/05/13 04:48:50;;;;;;;10.70;5.05;;;;;;;;;;5016418;28;20432;-81
2022/05/13 04:51:18;;;;;;;7.65;4.80;;;;;;;;;;5018009;28;20448;-82
2022/05/13 04:53:45;;;;;;;8.32;4.63;;;;;;;;;;5020311;28;20802;-83
2022/05/13 04:56:11;;;;;;;9.90;4.70;;;;;;;;;;5019602;28;20436;-81
2022/05/13 04:58:38;;;;;;;10.85;4.00;;;;;;;;;;5017265;28;20429;-83
2022/05/13 05:01:07;;;;;;;7.10;4.70;;;;;;;;;;5017630;28;20430;-83
2022/05/13 05:03:35;;;;;;;10.20;5.30;;;;;;;;;;5018322;28;20424;-82
2022/05/13 05:06:02;;;;;;;12.60;5.60;;;;;;;;;;5015008;28;20455;-82
2022/05/13 05:08:29;;;;;;;9.30;5.63;;;;;;;;;;5016625;28;20459;-84
2022/05/13 05:10:56;;;;;;;9.45;5.55;;;;;;;;;;5021093;28;20454;-83
2022/05/13 05:13:23;;;;;;;8.95;5.68;;;;;;;;;;5021163;28;20934;-81
2022/05/13 05:15:49;;;;;;;11.77;6.03;;;;;;;;;;5021262;28;20456;-83
2022/05/13 05:18:17;;;;;;;11.60;5.75;;;;;;;;;;5017494;28;20417;-83
2022/05/13 05:20:44;;;;;;;10.60;5.82;;;;;;;;;;5019972;28;20436;-82
2022/05/13 05:23:13;;;;;;;10.37;5.63;;;;;;;;;;5016231;28;20429;-81
2022/05/13 05:25:39;;;;;;;11.45;5.30;;;;;;;;;;5017747;28;20440;-81
2022/05/13 05:28:05;;;;;;;11.43;5.30;;;;;;;;;;5017379;28;20429;-84
2022/05/13 05:30:32;;;;;;;9.35;5.20;;;;;;;;;;5013984;28;20454;-80
2022/05/13 05:32:58;;;;;;;9.65;5.47;;;;;;;;;;5018558;28;20435;-81
2022/05/13 05:35:26;;;;;;;9.50;5.70;;;;;;;;;;5020450;28;20444;-81
2022/05/13 05:37:52;;;;;;;9.82;5.80;;;;;;;;;;5018421;28;20439;-81
2022/05/13 05:40:20;;;;;;;11.30;6.05;;;;;;;;;;5016835;28;20420;-82
2022/05/13 05:42:46;;;;;;;10.93;5.20;;;;;;;;;;5018026;28;20425;-82
2022/05/13 05:45:14;;;;;;;8.82;5.00;;;;;;;;;;5017689;28;20443;-81
2022/05/13 05:47:40;;;;;;;12.00;5.05;;;;;;;;;;5011793;28;21009;-82
2022/05/13 05:50:09;;;;;;;8.68;5.30;;;;;;;;;;5020461;28;20433;-81
2022/05/13 05:52:36;;;;;;;11.05;5.68;;;;;;;;;;5018524;28;20452;-82
2022/05/13 05:57:56;;;;;;;9.05;4.78;;;;;;;;;;5015571;28;20429;-81
2022/05/13 06:00:22;;;;;;;9.93;5.00;;;;;;;;;;5025271;28;20428;-81
2022/05/13 06:02:48;;;;;;;10.07;5.10;;;;;;;;;;5024251;28;20435;-83
2022/05/13 06:05:15;;;;;;;13.23;6.07;;;;;;;;;;5025551;28;20806;-82
2022/05/13 06:07:42;;;;;;;9.23;5.45;;;;;;;;;;5020701;28;20435;-79
2022/05/13 06:10:09;;;;;;;10.70;5.65;;;;;;;;;;5022570;28;20440;-82
2022/05/13 06:12:35;;;;;;;9.63;5.60;;;;;;;;;;5022991;28;20424;-80
2022/05/13 06:15:02;;;;;;;12.38;6.18;;;;;;;;;;5022364;28;20490;-80
2022/05/13 06:17:28;;;;;;;13.52;4.95;;;;;;;;;;5020764;28;20436;-81
2022/05/13 06:19:54;;;;;;;11.40;5.40;;;;;;;;;;5022422;28;20428;-82
2022/05/13 06:22:21;;;;;;;15.50;6.50;;;;;;;;;;5021781;28;20424;-81
2022/05/13 06:24:49;;;;;;;13.65;5.90;;;;;;;;;;5025103;28;20455;-81
2022/05/13 06:27:15;;;;;;;10.10;5.80;;;;;;;;;;5020896;28;20418;-83
2022/05/13 06:29:42;;;;;;;12.00;6.20;;;;;;;;;;5024452;28;20412;-81
2022/05/13 06:32:08;;;;;;;16.08;6.40;;;;;;;;;;5022637;28;20800;-81
2022/05/13 06:34:35;;;;;;;11.77;6.80;;;;;;;;;;5024431;28;20913;-80
2022/05/13 06:37:01;;;;;;;11.88;6.38;;;;;;;;;;5021451;28;20415;-82
2022/05/13 06:39:27;;;;;;;16.10;6.25;;;;;;;;;;5018596;28;20437;-81
2022/05/13 06:41:55;;;;;;;11.85;6.10;;;;;;;;;;5023136;28;20412;-81
2022/05/13 06:44:21;;;;;;;16.20;5.97;;;;;;;;;;5023881;28;20428;-81
2022/05/13 06:46:47;;;;;;;15.23;6.17;;;;;;;;;;5021245;28;20420;-80
2022/05/13 06:49:14;;;;;;;9.82;5.18;;;;;;;;;;5020563;28;20438;-82
2022/05/13 06:51:41;;;;;;;12.40;5.88;;;;;;;;;;5024176;28;20416;-81
2022/05/13 06:54:09;;;;;;;12.80;5.32;;;;;;;;;;5021640;28;20421;-83
2022/05/13 06:56:36;;;;;;;16.23;6.70;;;;;;;;;;5020651;28;20432;-82
2022/05/13 06:59:04;;;;;;;15.75;7.03;;;;;;;;;;5021164;28;20432;-81
2022/05/13 07:01:31;;;;;;;15.40;7.10;;;;;;;;;;5018627;28;20428;-81
2022/05/13 07:03:57;;;;;;;16.50;6.70;;;;;;;;;;5020044;28;21000;-81
2022/05/13 07:06:23;;;;;;;12.97;6.53;;;;;;;;;;5023655;28;20803;-81
2022/05/13 07:08:50;;;;;;;11.23;5.68;;;;;;;;;;5022627;28;20421;-80
2022/05/13 07:11:17;;;;;;;15.43;5.97;;;;;;;;;;5024860;28;20511;-81
2022/05/13 07:13:43;;;;;;;13.27;5.78;;;;;;;;;;5022844;28;20440;-80
2022/05/13 07:16:11;;;;;;;12.82;6.07;;;;;;;;;;5022456;28;20405;-80
2022/05/13 07:18:38;;;;;;;13.37;5.80;;;;;;;;;;5020472;28;20447;-82
2022/05/13 07:21:05;;;;;;;16.42;5.80;;;;;;;;;;5023746;28;20468;-81
2022/05/13 07:23:31;;;;;;;11.73;5.50;;;;;;;;;;5022601;28;20925;-81
2022/05/13 07:25:58;;;;;;;13.68;6.20;;;;;;;;;;5023375;28;20412;-81
2022/05/13 07:28:25;;;;;;;16.52;6.80;;;;;;;;;;5022125;28;20504;-80
2022/05/13 07:30:51;;;;;;;11.37;5.50;;;;;;;;;;5021830;28;20429;-82
2022/05/13 07:33:19;;;;;;;10.65;5.35;;;;;;;;;;5020533;28;20447;-81
2022/05/13 07:35:46;;;;;;;14.48;5.50;;;;;;;;;;5020273;28;20459;-81
2022/05/13 07:38:12;;;;;;;13.95;6.00;;;;;;;;;;5021830;28;20413;-81
2022/05/13 07:43:22;;;;;;;18.77;6.50;;;;;;;;;;5023041;28;20424;-80
2022/05/13 07:45:49;;;;;;;16.10;6.30;;;;;;;;;;5023763;28;20413;-82
2022/05/13 07:48:15;;;;;;;10.68;5.88;;;;;;;;;;5020880;28;20425;-81
2022/05/13 07:50:42;;;;;;;14.75;6.03;;;;;;;;;;5016921;28;20432;-79
2022/05/13 07:53:09;;;;;;;13.18;5.60;;;;;;;;;;5020423;28;20956;-81
2022/05/13 07:55:35;;;;;;;14.73;6.45;;;;;;;;;;5020871;28;20415;-80
2022/05/13 07:58:02;;;;;;;16.40;5.63;;;;;;;;;;5021824;28;20437;-82
2022/05/13 08:00:29;;;;;;;15.52;5.40;;;;;;;;;;5020523;28;20429;-81
2022/05/13 08:02:57;;;;;;;14.90;6.00;;;;;;;;;;5021354;28;20513;-80
2022/05/13 08:05:24;;;;;;;12.65;5.38;;;;;;;;;;5018462;28;20466;-80
2022/05/13 08:07:59;;;;;;;12.40;5.50;;;;;;;;;;5021275;28;20424;-80
2022/05/13 08:10:25;;;;;;;15.52;5.90;;;;;;;;;;5019688;28;20468;-81
2022/05/13 08:12:52;;;;;;;13.95;6.30;;;;;;;;;;5021517;28;20432;-81
2022/05/13 08:15:18;;;;;;;9.98;5.18;;;;;;;;;;5021509;28;20416;-82
2022/05/13 08:17:44;;;;;;;12.23;5.20;;;;;;;;;;5020884;28;20413;-80
2022/05/13 08:20:11;;;;;;;12.27;5.47;;;;;;;;;;5017442;28;20436;-79
2022/05/13 08:22:37;;;;;;;11.93;5.45;;;;;;;;;;5018788;28;20421;-80
2022/05/13 08:25:06;;;;;;;12.95;6.03;;;;;;;;;;5020541;28;21759;-83
2022/05/13 08:27:33;;;;;;;15.60;5.73;;;;;;;;;;5018175;28;20424;-79
2022/05/13 08:30:01;;;;;;;11.27;5.40;;;;;;;;;;5020947;28;20421;-79
2022/05/13 08:32:27;;;;;;;12.93;5.73;;;;;;;;;;5021487;28;20569;-80
2022/05/13 08:34:53;;;;;;;11.07;5.68;;;;;;;;;;5019956;28;20435;-80
2022/05/13 08:37:20;;;;;;;13.50;4.90;;;;;;;;;;5020381;28;20421;-81
2022/05/13 08:39:46;;;;;;;11.98;5.60;;;;;;;;;;5019008;28;20412;-79
2022/05/13 08:42:18;;;;;;;13.38;4.80;;;;;;;;;;5017897;28;20412;-80
2022/05/13 08:44:50;;;;;;;14.90;5.10;;;;;;;;;;5021555;28;20420;-80
2022/05/13 08:47:19;;;;;;;9.80;4.45;;;;;;;;;;5019362;28;20421;-81
2022/05/13 08:49:48;;;;;;;15.00;5.70;;;;;;;;;;5018078;28;20427;-80
2022/05/13 08:55:04;;;;;;;8.65;4.20;;;;;;;;;;5019698;28;20424;-80
2022/05/13 08:57:34;;;;;;;8.70;4.35;;;;;;;;;;5020133;28;20421;-80
2022/05/13 09:00:01;;;;;;;9.57;3.88;;;;;;;;;;5014279;28;20532;-82
2022/05/13 09:02:30;;;;;;;10.77;4.70;;;;;;;;;;5018796;28;20447;-82
2022/05/13 09:05:00;;;;;;;10.10;4.20;;;;;;;;;;5019657;28;20437;-82
2022/05/13 09:07:26;;;;;;;10.97;4.67;;;;;;;;;;5017211;28;20443;-82
2022/05/13 09:09:54;;;;;;;8.40;3.40;;;;;;;;;;5019008;28;20421;-81
2022/05/13 09:12:23;;;;;;;11.13;3.55;;;;;;;;;;5018858;28;20799;-80
2022/05/13 09:14:53;;;;;;;7.97;3.50;;;;;;;;;;5018146;23;20462;-79
2022/05/13 09:17:31;;;;;;;6.57;2.70;;;;;;;;;;5009633;28;20421;-80
2022/05/13 09:19:59;;;;;;;7.65;3.60;;;;;;;;;;5007138;28;21099;-81
2022/05/13 09:22:32;;;;;;;9.77;3.83;;;;;;;;;;5009686;28;20425;-79
2022/05/13 09:24:58;;;;;;;7.47;3.50;;;;;;;;;;5005519;28;20446;-80
2022/05/13 09:27:24;;;;;;;9.37;3.70;;;;;;;;;;5002319;28;20421;-79
2022/05/13 09:29:52;;;;;;;5.35;3.03;;;;;;;;;;5001335;28;20439;-79
2022/05/13 09:32:24;;;;;;;6.78;3.50;;;;;;;;;;4999392;28;20424;-80
2022/05/13 09:34:54;;;;;;;6.75;3.20;;;;;;;;;;5001015;28;20436;-80
2022/05/13 09:37:21;;;;;;;5.50;3.40;;;;;;;;;;5000234;28;20920;-81
2022/05/13 09:39:49;;;;;;;8.27;3.28;;;;;;;;;;4999747;28;20459;-80
2022/05/13 09:42:20;;;;;;;7.75;3.28;;;;;;;;;;5001468;28;20418;-81
2022/05/13 09:44:48;;;;;;;6.93;3.38;;;;;;;;;;5002003;28;21291;-81
2022/05/13 09:47:17;;;;;;;7.78;3.67;;;;;;;;;;5000316;28;20762;-82
2022/05/13 09:49:46;;;;;;;5.55;3.00;;;;;;;;;;5001223;28;20436;-79
2022/05/13 09:52:14;;;;;;;6.07;3.50;;;;;;;;;;5000663;28;20417;-80
2022/05/13 09:54:41;;;;;;;9.48;3.40;;;;;;;;;;5000780;28;20434;-79
2022/05/13 09:57:08;;;;;;;9.07;3.20;;;;;;;;;;5000980;28;20412;-80
2022/05/13 09:59:36;;;;;;;8.57;3.60;;;;;;;;;;5000690;28;20408;-79
2022/05/13 10:02:14;;;;;;;8.57;3.40;;;;;;;;;;5002413;28;20980;-79
2022/05/13 10:04:42;;;;;;;7.10;3.22;;;;;;;;;;4999749;28;21007;-81
2022/05/13 10:07:13;;;;;;;8.00;2.95;;;;;;;;;;5000405;28;20412;-82
2022/05/13 10:15:18;;;;;;;7.88;3.03;;;;;;;;;;5000172;28;20492;-81
2022/05/13 10:17:47;;;;;;;6.72;2.90;;;;;;;;;;5001402;28;20408;-79
2022/05/13 10:20:20;;;;;;;6.68;2.90;;;;;;;;;;5000206;28;20795;-79
2022/05/13 10:22:49;;;;;;;8.00;2.60;;;;;;;;;;5000239;28;20417;-79
2022/05/13 10:25:17;;;;;;;5.60;2.10;;;;;;;;;;4999851;28;20454;-80
2022/05/13 10:27:46;;;;;;;10.10;2.80;;;;;;;;;;5001059;28;20439;-81
2022/05/13 10:30:15;;;;;;;7.18;2.40;;;;;;;;;;5000707;28;20409;-80
2022/05/13 10:32:43;;;;;;;5.63;2.80;;;;;;;;;;5001467;28;20426;-81
2022/05/13 10:35:12;;;;;;;7.30;2.35;;;;;;;;;;5001924;28;20435;-81
2022/05/13 10:37:48;;;;;;;4.63;2.35;;;;;;;;;;4999979;28;20426;-79
2022/05/13 10:40:18;;;;;;;5.70;2.28;;;;;;;;;;4999683;28;20425;-81
2022/05/13 10:42:45;;;;;;;6.47;2.30;;;;;;;;;;5001054;28;20430;-81
2022/05/13 10:45:15;;;;;;;7.53;2.60;;;;;;;;;;5002800;28;20418;-82
2022/05/13 10:47:44;;;;;;;5.77;2.30;;;;;;;;;;5004537;28;20421;-81
2022/05/13 10:50:13;;;;;;;5.28;2.38;;;;;;;;;;5004342;28;20904;-80
2022/05/13 10:52:47;;;;;;;5.05;2.63;;;;;;;;;;5003094;28;20424;-81
2022/05/13 10:55:18;;;;;;;7.90;2.70;;;;;;;;;;5003884;28;20415;-79
2022/05/13 10:57:46;;;;;;;5.55;2.25;;;;;;;;;;5002040;28;20415;-79
2022/05/13 11:00:14;;;;;;;4.90;2.00;;;;;;;;;;5002744;28;20555;-81
2022/05/13 11:03:04;;;;;;;4.57;2.25;;;;;;;;;;5004219;28;20422;-80
2022/05/13 11:05:34;;;;;;;5.07;1.80;;;;;;;;;;5004791;28;20492;-80
2022/05/13 11:08:06;;;;;;;6.70;2.00;;;;;;;;;;5003341;28;20417;-80
2022/05/13 11:10:35;;;;;;;6.70;2.30;;;;;;;;;;4997443;28;20441;-81
2022/05/13 11:13:05;;;;;;;5.63;2.17;;;;;;;;;;4996941;28;20428;-79
2022/05/13 11:15:35;;;;;;;3.20;2.00;;;;;;;;;;5000413;28;20855;-80
2022/05/13 11:18:06;;;;;;;5.37;2.33;;;;;;;;;;5001364;28;20494;-79
2022/05/13 11:20:39;;;;;;;5.95;1.90;;;;;;;;;;5004179;28;20432;-80
2022/05/13 11:23:14;;;;;;;5.03;2.10;;;;;;;;;;5003768;28;20926;-80
2022/05/13 11:25:56;;;;;;;7.95;2.60;;;;;;;;;;5004503;28;20413;-79
2022/05/13 11:28:32;;;;;;;6.07;2.50;;;;;;;;;;5003749;28;20771;-80
2022/05/13 11:31:01;;;;;;;8.10;2.42;;;;;;;;;;5004689;28;20925;-80
2022/05/13 11:33:32;;;;;;;4.03;2.20;;;;;;;;;;5004955;28;20871;-81
2022/05/13 11:36:06;;;;;;;7.32;2.45;;;;;;;;;;5004580;28;20515;-80
2022/05/13 11:38:40;;;;;;;3.30;1.83;;;;;;;;;;5003356;28;20617;-81
2022/05/13 11:41:10;;;;;;;5.20;2.27;;;;;;;;;;5004776;28;20482;-80
2022/05/13 11:43:41;;;;;;;6.43;2.13;;;;;;;;;;5005831;28;20417;-80
2022/05/13 11:46:21;;;;;;;6.63;2.28;;;;;;;;;;5004848;28;20475;-80
2022/05/13 11:48:48;;;;;;;6.10;2.00;;;;;;;;;;5003140;28;20423;-79
2022/05/13 11:51:16;;;;;;;5.72;2.38;;;;;;;;;;5005765;28;20563;-80
2022/05/13 11:53:45;;;;;;;3.95;2.10;;;;;;;;;;5003351;28;20520;-80
2022/05/13 11:56:17;;;;;;;2.67;1.75;;;;;;;;;;5005244;28;20518;-82
2022/05/13 11:58:51;;;;;;;6.10;2.10;;;;;;;;;;5004091;28;20505;-82
2022/05/13 12:01:36;;;;;;;4.22;2.10;;;;;;;;;;5006745;28;20733;-81
2022/05/13 12:04:21;;;;;;;5.68;2.10;;;;;;;;;;5004628;28;20415;-82
2022/05/13 12:06:55;;;;;;;6.00;2.30;;;;;;;;;;5004584;28;20433;-80
2022/05/13 12:09:25;;;;;;;5.38;2.35;;;;;;;;;;5002793;28;20461;-81
2022/05/13 12:11:53;;;;;;;4.43;2.17;;;;;;;;;;5003867;28;20422;-81
2022/05/13 12:14:25;;;;;;;5.03;1.92;;;;;;;;;;5005151;28;20412;-80
2022/05/13 12:16:56;;;;;;;6.80;2.60;;;;;;;;;;5003742;28;20849;-82
2022/05/13 12:19:40;;;;;;;4.88;1.88;;;;;;;;;;5004400;28;21177;-82
2022/05/13 12:22:09;;;;;;;4.97;1.70;;;;;;;;;;5005562;28;20421;-80
2022/05/13 12:24:57;;;;;;;8.60;2.20;;;;;;;;;;5003516;28;20434;-81
2022/05/13 12:27:35;;;;;;;4.97;1.60;;;;;;;;;;5004817;28;20453;-80
2022/05/13 12:30:03;;;;;;;5.43;1.80;;;;;;;;;;5003715;28;20435;-79
2022/05/13 12:32:37;;;;;;;3.72;1.70;;;;;;;;;;5005203;28;20497;-83
2022/05/13 12:38:01;;;;;;;5.53;1.88;;;;;;;;;;5005178;28;20436;-82
2022/05/13 12:40:32;;;;;;;4.47;1.70;;;;;;;;;;5000708;28;20480;-82
2022/05/13 12:43:00;;;;;;;3.97;1.83;;;;;;;;;;5001849;28;20862;-80
2022/05/13 12:45:47;;;;;;;2.50;1.70;;;;;;;;;;5001496;28;20446;-79
2022/05/13 12:48:15;;;;;;;5.20;1.87;;;;;;;;;;4975833;28;20488;-80
2022/05/13 12:50:43;;;;;;;2.92;1.60;;;;;;;;;;5001622;28;20811;-80
2022/05/13 12:53:28;;;;;;;4.45;1.45;;;;;;;;;;5001598;28;20999;-80
2022/05/13 12:55:56;;;;;;;2.90;1.40;;;;;;;;;;5000113;28;21232;-79
2022/05/13 12:58:22;;;;;;;5.35;1.90;;;;;;;;;;4999230;28;20425;-79
2022/05/13 13:00:49;;;;;;;5.10;1.70;;;;;;;;;;5001106;28;20483;-80
2022/05/13 13:03:18;;;;;;;3.27;1.63;;;;;;;;;;5001483;28;20982;-80
2022/05/13 13:05:47;;;;;;;3.75;1.50;;;;;;;;;;5001706;28;20444;-79
2022/05/13 13:08:14;;;;;;;6.70;2.42;;;;;;;;;;5000688;28;20421;-80
2022/05/13 13:10:47;;;;;;;3.65;1.90;;;;;;;;;;4999045;28;20428;-79
2022/05/13 13:13:20;;;;;;;3.10;1.40;;;;;;;;;;5000023;28;20434;-79
2022/05/13 13:15:48;;;;;;;3.03;1.58;;;;;;;;;;4999787;28;20437;-79
2022/05/13 13:18:15;;;;;;;5.00;1.70;;;;;;;;;;4999513;28;20511;-79
2022/05/13 13:20:47;;;;;;;4.13;1.75;;;;;;;;;;5001423;28;20420;-79
2022/05/13 13:23:14;;;;;;;4.15;1.80;;;;;;;;;;4998943;28;20432;-81
2022/05/13 13:25:42;;;;;;;6.05;2.00;;;;;;;;;;4998450;28;20464;-81
2022/05/13 13:28:09;;;;;;;3.28;1.73;;;;;;;;;;4999751;28;20420;-80
2022/05/13 13:30:40;;;;;;;5.90;1.77;;;;;;;;;;4998919;28;20984;-80
2022/05/13 13:33:06;;;;;;;3.20;1.60;;;;;;;;;;5001383;28;20918;-81
2022/05/13 13:35:34;;;;;;;7.50;2.30;;;;;;;;;;5000104;28;20483;-81
2022/05/13 13:38:00;;;;;;;4.43;2.10;;;;;;;;;;5000053;28;20430;-80
2022/05/13 13:40:28;;;;;;;6.25;2.08;;;;;;;;;;4999877;28;20960;-80
2022/05/13 13:42:54;;;;;;;6.25;1.83;;;;;;;;;;5001442;28;20472;-80
2022/05/13 13:45:24;;;;;;;6.10;1.90;;;;;;;;;;4998034;28;20482;-80
2022/05/13 13:47:53;;;;;;;3.20;1.48;;;;;;;;;;4997899;28;20425;-80
2022/05/13 13:50:21;;;;;;;2.70;1.30;;;;;;;;;;4998259;28;20436;-79
2022/05/13 13:52:50;;;;;;;5.50;1.73;;;;;;;;;;5000699;28;20422;-79
2022/05/13 13:55:20;;;;;;;5.40;2.00;;;;;;;;;;4998832;28;20530;-80
2022/05/13 13:57:57;;;;;;;5.53;1.70;;;;;;;;;;5000470;28;20434;-80
2022/05/13 14:00:28;;;;;;;3.60;1.70;;;;;;;;;;4999880;28;20818;-78
2022/05/13 14:03:01;;;;;;;2.80;1.35;;;;;;;;;;5001358;28;20441;-79
2022/05/13 14:05:29;;;;;;;5.45;1.63;;;;;;;;;;4999740;28;20449;-81
2022/05/13 14:07:56;;;;;;;4.32;1.85;;;;;;;;;;4999447;28;20426;-80
2022/05/13 14:10:25;;;;;;;5.20;1.83;;;;;;;;;;4999621;28;20438;-80
2022/05/13 14:12:52;;;;;;;5.15;1.75;;;;;;;;;;5001105;28;20565;-81
2022/05/13 14:15:18;;;;;;;3.58;1.85;;;;;;;;;;5000162;28;20453;-81
2022/05/13 14:17:48;;;;;;;4.40;1.85;;;;;;;;;;5000201;28;20451;-78
2022/05/13 14:20:17;;;;;;;3.85;1.80;;;;;;;;;;5003268;28;20442;-80
2022/05/13 14:23:11;;;;;;;4.57;1.70;;;;;;;;;;5003747;28;20460;-80
2022/05/13 14:25:39;;;;;;;4.07;1.80;;;;;;;;;;4969862;28;20436;-79
2022/05/13 14:28:09;;;;;;;3.22;1.90;;;;;;;;;;5004038;28;20426;-81
2022/05/13 14:30:35;;;;;;;5.17;1.70;;;;;;;;;;5004524;28;20494;-82
2022/05/13 14:33:01;;;;;;;3.72;1.60;;;;;;;;;;5005682;28;20432;-80
2022/05/13 14:35:30;;;;;;;6.60;2.10;;;;;;;;;;5003541;28;20455;-79
2022/05/13 14:37:58;;;;;;;5.93;2.00;;;;;;;;;;5003579;28;20426;-80
2022/05/13 14:40:26;;;;;;;4.75;1.80;;;;;;;;;;5002866;28;21360;-80
2022/05/13 14:42:54;;;;;;;5.13;1.73;;;;;;;;;;5004727;28;20776;-81
2022/05/13 14:45:24;;;;;;;4.20;1.70;;;;;;;;;;5004766;28;20453;-82
2022/05/13 14:47:52;;;;;;;5.95;1.50;;;;;;;;;;5002927;28;20418;-82
2022/05/13 14:50:20;;;;;;;6.68;2.13;;;;;;;;;;5002969;28;20931;-80
2022/05/13 14:52:49;;;;;;;2.50;1.33;;;;;;;;;;5004209;28;20428;-78
2022/05/13 14:55:17;;;;;;;5.82;1.70;;;;;;;;;;5000257;28;20436;-82
2022/05/13 14:57:43;;;;;;;6.03;1.70;;;;;;;;;;5003029;28;20429;-81
2022/05/13 15:00:13;;;;;;;7.80;2.30;;;;;;;;;;5003469;28;20426;-80
2022/05/13 15:02:45;;;;;;;5.00;1.98;;;;;;;;;;5004316;28;20488;-79
2022/05/13 15:05:17;;;;;;;4.75;1.70;;;;;;;;;;5004765;28;20436;-81
2022/05/13 15:07:43;;;;;;;2.30;1.50;;;;;;;;;;5005370;28;20429;-81
2022/05/13 15:10:13;;;;;;;4.90;2.20;;;;;;;;;;5001077;28;20935;-82
2022/05/13 15:12:40;;;;;;;7.17;2.10;;;;;;;;;;5003345;28;20437;-83